Main page
METAR-TAF:

METAR-TAF

Airports :

Baghdad International Airport

Baghdad, Iraq

latitude: 33-15-45N, longitude: 44-14-04E, elevation: 35 m

Current weather observation

The report was made 1 hour and 1 minutes ago, at 23:00 UTC
Wind 3 kt from the West
Temperature 24°C
Humidity 41%
Pressure 1009 hPa
Visibility 10 km or more
no clouds below 1500 m and no cumulonimbus

METAR: ORBI 222300Z 26003KT CAVOK 24/10 Q1009 NOSIG

Time: 03:01 (00:01 UTC)

Forecast

The report was made 1 hour and 1 minutes ago, at 23:00 UTC
Forecast valid from 23 at 00 UTC to 23 at 24 UTC
Wind 8 kt from the West/Northwest
Visibility: 8000 m

TAF: ORBI 222300Z 2300/2324 30008KT 8000 NSC

Weather observations and forecasts of more than 4000 airports (METAR and TAF reports).

The available stations are represented by yellow and red dots on the map.

Hover mouse over dot to see the name of the station.

Then click to see weather observations and forecasts.

To change the map : click on the green buttons with a black cross to zoom in, on the green button with a dash to zoom out, or on the green arrows for adjacent maps.


METAR-TAF: